الصفحة الرئيسية
METAR-TAF:

METAR-TAF

مطار :

بورتو أليغري, ريو غراندي دو سول, البرازيل

دائرة عرض: 30-01S, خط طول: 051-13W, ارتفاع: 47 متر

مراقبة الطقس الحالي

تاريخ ووقت الإصدار 59 دقيقة قبل الساعة 08:00UTC
ريح 3 عقدة من الشرق/الجنوب الشرقي
درجة الحرارة 15°درجة مئوية
الرطوبة 94%
ضغط 1011 hPa
الرؤية 10 كم أو أكثر
الغيوم لا تقل 1500 م ولا وجود لمزنة ركامية السحاب الأسود

METAR: SBCO 140800Z 11003KT CAVOK 15/14 Q1011

زمن: 05:59 (08:59 UTC)

توقعات

تاريخ ووقت الإصدار 5ساعات و 59 دقيقة قبل الساعة 03:00UTC
التوقعات صالحة من14 الساعة 06 UTC إلى 14 الساعة 18 UTC
ريح 8 عقدة من الشمال
الرؤية 10 كم أو أكثر
الغيوم لا تقل 1500 م ولا وجود لمزنة ركامية السحاب الأسود
أصبح
من 14 الساعة 12 UTC إلى 14 الساعة 14 UTC
ريح 12 عقدة من الشمال تتزايد حتى 24 عقدة

TAF: SBCO 140300Z 1406/1418 01008KT CAVOK TN16/1407Z TX28/1417Z BECMG 1412/1414 35012G24KT RMK PEG

أرصاد الطقس والتوقعات من أكثر من 4000 مطار (تقارير الطقس للمطار METAR والتنبؤ بالطقس بالمطارTAF).

المحطات المتاحة هي النقط الصفراء والحمراء على الخريطة.

حرك المؤشر فوق النقطة لمعرفة اسم المحطة.

ثم انقر لمعرفة أرصاد وتوقعات الطقس.

لتغيير الخارطة: اضغط على الأزرار الخضراء مع رمز الصليب الأسود للتكبير. على الزر الأخضر مع شرطة للتصغير، أو على الأسهم الخضراء للخرائط المجاورة.


METAR-TAF: